Terminal Aerodrome Forecast
Issued by NWS

Home | Current Version | Previous Version | Text Only | Print | Product List | Glossary On
Versions: 1 2 3 4 5 6 7 8 9 10 11 12 13 14 15 16 17 18 19 20 21 22 23 24 25 26
000
FTUS46 KSGX 261100
TAFSAN
TAF
KSAN 261130Z 2612/2718 VRB04KT P6SM SCT070 BKN150
     FM261900 20010KT P6SM SCT050 BKN070
     FM262300 VRB06KT P6SM VCSH SCT030 OVC050 PROB30 2623/2705 -SHRA
      BKN030
     FM270600 VRB04KT P6SM BKN040
     FM271600 VRB04KT P6SM SCT030 SCT040=

USA.gov is the U.S. government's official web portal to all federal, state and local government web resources and services.